| time (UTC) | temp F | wind direction | speed MPH | gust MPH | rain 1hr in | rain 24hr in | rain mn in | humidity % | barometer mb |
| 20260507121022 | 48 | 2 | 1.0 | 4.0 | 0.04 | 0.70 | 0.36 | 94 | 1007.3 |
| 20260507120022 | 49 | 321 | 2.0 | 8.0 | 0.04 | 0.70 | 0.36 | 94 | 1007.7 |
| 20260507115022 | 49 | 29 | 1.0 | 5.0 | 0.02 | 0.68 | 0.34 | 94 | 1007.9 |
| 20260507114022 | 49 | 309 | 2.0 | 6.0 | 0.02 | 0.68 | 0.34 | 95 | 1007.0 |
| 20260507113023 | 49 | 2 | 1.0 | 5.0 | 0.02 | 0.68 | 0.34 | 95 | 1007.0 |
| 20260507112022 | 49 | 314 | 2.0 | 6.0 | 0.02 | 0.68 | 0.34 | 94 | 1007.0 |
| 20260507111022 | 49 | 334 | 3.0 | 8.0 | 0.02 | 0.66 | 0.32 | 95 | 1007.2 |
| 20260507110022 | 50 | 339 | 2.0 | 8.0 | 0.03 | 0.66 | 0.32 | 95 | 1007.0 |
| 20260507105022 | 50 | 356 | 2.0 | 7.0 | 0.15 | 0.66 | 0.32 | 96 | 1007.0 |
| 20260507104022 | 50 | 339 | 2.0 | 6.0 | 0.20 | 0.66 | 0.32 | 96 | 1006.5 |
| 20260507103022 | 50 | 339 | 2.0 | 6.0 | 0.23 | 0.66 | 0.32 | 96 | 1006.8 |
| 20260507102022 | 50 | 315 | 2.0 | 6.0 | 0.23 | 0.66 | 0.32 | 97 | 1006.7 |
| 20260507101022 | 51 | 320 | 1.0 | 7.0 | 0.21 | 0.64 | 0.30 | 97 | 1006.5 |
| 20260507100022 | 51 | 340 | 2.0 | 5.0 | 0.27 | 0.63 | 0.29 | 97 | 1005.7 |
| 20260507095022 | 51 | 302 | 3.0 | 11.0 | 0.16 | 0.51 | 0.17 | 96 | 1006.6 |
| 20260507094022 | 52 | 314 | 2.0 | 7.0 | 0.12 | 0.46 | 0.12 | 97 | 1005.5 |
| 20260507093022 | 53 | 342 | 3.0 | 7.0 | 0.09 | 0.43 | 0.09 | 97 | 1005.8 |
| 20260507092023 | 54 | 302 | 3.0 | 10.0 | 0.09 | 0.43 | 0.09 | 97 | 1006.0 |
| 20260507091022 | 54 | 296 | 2.0 | 8.0 | 0.09 | 0.43 | 0.09 | 97 | 1006.0 |
| 20260507090022 | 54 | 277 | 1.0 | 4.0 | 0.02 | 0.36 | 0.02 | 97 | 1006.2 |
| 20260507085022 | 54 | 274 | 1.0 | 5.0 | 0.01 | 0.35 | 0.01 | 97 | 1006.0 |
| 20260507084022 | 55 | 252 | 0.0 | 1.0 | 0.00 | 0.34 | 0.00 | 97 | 1005.2 |
| 20260507083022 | 55 | 0.0 | 0.0 | 0.00 | 0.34 | 0.00 | 97 | 1005.1 | |
| 20260507082022 | 55 | 191 | 0.0 | 1.0 | 0.00 | 0.34 | 0.00 | 97 | 1005.1 |
| 20260507081022 | 55 | 190 | 0.0 | 1.0 | 0.00 | 0.34 | 0.00 | 97 | 1005.1 |
| 20260507080022 | 55 | 236 | 0.0 | 1.0 | 0.00 | 0.34 | 0.00 | 97 | 1005.2 |
| 20260507075022 | 55 | 235 | 0.0 | 2.0 | 0.00 | 0.34 | 0.00 | 97 | 1005.3 |
| 20260507074022 | 56 | 238 | 0.0 | 1.0 | 0.00 | 0.34 | 0.00 | 97 | 1005.4 |
| 20260507073022 | 56 | 245 | 0.0 | 1.0 | 0.00 | 0.34 | 0.00 | 97 | 1005.5 |
| 20260507072022 | 56 | 321 | 0.0 | 3.0 | 0.00 | 0.34 | 0.00 | 97 | 1005.8 |
| 20260507071022 | 56 | 249 | 0.0 | 1.0 | 0.00 | 0.34 | 0.00 | 97 | 1005.6 |
| 20260507070022 | 56 | 258 | 0.0 | 2.0 | 0.00 | 0.34 | 0.00 | 97 | 1005.5 |
| 20260507065022 | 56 | 295 | 1.0 | 5.0 | 0.00 | 0.34 | 0.00 | 97 | 1005.5 |
| 20260507064022 | 56 | 297 | 1.0 | 4.0 | 0.00 | 0.34 | 0.00 | 97 | 1005.6 |
| 20260507063022 | 56 | 297 | 2.0 | 4.0 | 0.00 | 0.34 | 0.00 | 97 | 1005.8 |
| 20260507062022 | 56 | 291 | 1.0 | 5.0 | 0.00 | 0.34 | 0.00 | 97 | 1005.7 |
| 20260507061022 | 56 | 240 | 1.0 | 3.0 | 0.00 | 0.34 | 0.00 | 97 | 1005.6 |
| 20260507060022 | 56 | 289 | 1.0 | 6.0 | 0.00 | 0.34 | 0.00 | 97 | 1005.7 |
| 20260507055022 | 56 | 299 | 1.0 | 4.0 | 0.00 | 0.34 | 0.00 | 97 | 1005.9 |
| 20260507054022 | 56 | 92 | 2.0 | 5.0 | 0.00 | 0.34 | 0.00 | 97 | 1006.1 |
| 20260507053022 | 56 | 283 | 1.0 | 6.0 | 0.00 | 0.34 | 0.00 | 97 | 1006.4 |
| 20260507052022 | 56 | 286 | 1.0 | 4.0 | 0.00 | 0.34 | 0.00 | 97 | 1006.5 |
| 20260507051022 | 56 | 275 | 1.0 | 7.0 | 0.00 | 0.34 | 0.00 | 97 | 1006.3 |
| 20260507050022 | 57 | 289 | 1.0 | 4.0 | 0.00 | 0.34 | 0.00 | 97 | 1006.4 |
| 20260507045023 | 57 | 272 | 1.0 | 5.0 | 0.00 | 0.34 | 0.00 | 97 | 1006.5 |
| 20260507044022 | 57 | 235 | 1.0 | 4.0 | 0.00 | 0.34 | 0.00 | 97 | 1006.6 |
| 20260507043022 | 57 | 191 | 1.0 | 4.0 | 0.00 | 0.34 | 0.00 | 97 | 1006.8 |
| 20260507042022 | 57 | 297 | 1.0 | 4.0 | 0.00 | 0.34 | 0.00 | 97 | 1006.9 |
| 20260507041022 | 57 | 306 | 2.0 | 4.0 | 0.00 | 0.34 | 0.00 | 97 | 1006.7 |
| 20260507040029 | 57 | 291 | 2.0 | 6.0 | 0.00 | 0.34 | 0.00 | 97 | 1006.8 |
| 20260507035022 | 57 | 305 | 2.0 | 8.0 | 0.00 | 0.34 | 0.34 | 97 | 1007.0 |
| 20260507034022 | 57 | 270 | 2.0 | 16.0 | 0.00 | 0.34 | 0.34 | 97 | 1006.9 |
| 20260507033022 | 57 | 305 | 2.0 | 10.0 | 0.00 | 0.34 | 0.34 | 97 | 1006.6 |
| 20260507032022 | 57 | 162 | 2.0 | 7.0 | 0.00 | 0.34 | 0.34 | 97 | 1006.5 |
| 20260507031022 | 57 | 263 | 1.0 | 4.0 | 0.00 | 0.34 | 0.34 | 97 | 1006.6 |
| 20260507030022 | 57 | 246 | 2.0 | 12.0 | 0.00 | 0.34 | 0.34 | 97 | 1006.8 |
| 20260507025023 | 57 | 302 | 2.0 | 6.0 | 0.00 | 0.34 | 0.34 | 97 | 1007.1 |
| 20260507024023 | 57 | 185 | 3.0 | 6.0 | 0.00 | 0.34 | 0.34 | 97 | 1007.3 |
| 20260507023023 | 57 | 177 | 2.0 | 5.0 | 0.00 | 0.34 | 0.34 | 97 | 1007.5 |
| 20260507022022 | 57 | 292 | 2.0 | 5.0 | 0.01 | 0.34 | 0.34 | 97 | 1007.7 |
| 20260507021022 | 57 | 259 | 2.0 | 7.0 | 0.01 | 0.34 | 0.34 | 96 | 1007.6 |
| 20260507020022 | 57 | 285 | 2.0 | 6.0 | 0.01 | 0.34 | 0.34 | 96 | 1007.9 |
| 20260507015022 | 57 | 197 | 2.0 | 7.0 | 0.03 | 0.34 | 0.34 | 96 | 1008.2 |
| 20260507014022 | 57 | 224 | 2.0 | 7.0 | 0.09 | 0.34 | 0.34 | 97 | 1008.1 |
| 20260507013022 | 57 | 295 | 3.0 | 12.0 | 0.14 | 0.34 | 0.34 | 97 | 1008.1 |
| 20260507012022 | 57 | 138 | 2.0 | 7.0 | 0.16 | 0.33 | 0.33 | 97 | 1008.3 |
| 20260507011022 | 57 | 159 | 2.0 | 6.0 | 0.17 | 0.33 | 0.33 | 96 | 1008.3 |
| 20260507010022 | 57 | 222 | 2.0 | 5.0 | 0.18 | 0.33 | 0.33 | 96 | 1008.4 |
| 20260507005022 | 57 | 140 | 2.0 | 12.0 | 0.17 | 0.31 | 0.31 | 96 | 1008.5 |
| 20260507004022 | 57 | 148 | 2.0 | 6.0 | 0.12 | 0.25 | 0.25 | 96 | 1008.2 |
| 20260507003022 | 57 | 153 | 2.0 | 6.0 | 0.10 | 0.20 | 0.20 | 96 | 1008.4 |
| 20260507002022 | 57 | 131 | 2.0 | 6.0 | 0.11 | 0.17 | 0.17 | 96 | 1008.3 |
| 20260507001023 | 57 | 143 | 3.0 | 6.0 | 0.13 | 0.16 | 0.16 | 95 | 1008.3 |
| 20260507000027 | 57 | 138 | 2.0 | 7.0 | 0.15 | 0.15 | 0.15 | 95 | 1008.5 |
| 20260506235023 | 58 | 155 | 3.0 | 11.0 | 0.14 | 0.14 | 0.14 | 95 | 1008.5 |
| 20260506234022 | 58 | 148 | 3.0 | 9.0 | 0.13 | 0.13 | 0.13 | 95 | 1008.7 |
| 20260506233022 | 58 | 159 | 3.0 | 7.0 | 0.10 | 0.10 | 0.10 | 94 | 1008.7 |
| 20260506232023 | 59 | 207 | 3.0 | 9.0 | 0.06 | 0.06 | 0.06 | 93 | 1008.9 |
| 20260506231022 | 60 | 152 | 2.0 | 9.0 | 0.03 | 0.03 | 0.03 | 91 | 1008.9 |
| 20260506230022 | 61 | 177 | 3.0 | 13.0 | 0.00 | 0.00 | 0.00 | 88 | 1008.8 |
| 20260506225022 | 61 | 142 | 3.0 | 13.0 | 0.00 | 0.00 | 0.00 | 87 | 1008.8 |
| 20260506224023 | 61 | 155 | 3.0 | 7.0 | 0.00 | 0.00 | 0.00 | 86 | 1008.9 |
| 20260506223022 | 61 | 143 | 3.0 | 8.0 | 0.00 | 0.00 | 0.00 | 86 | 1008.9 |
| 20260506222022 | 61 | 146 | 2.0 | 4.0 | 0.00 | 0.00 | 0.00 | 85 | 1009.0 |
| 20260506221022 | 61 | 161 | 3.0 | 10.0 | 0.00 | 0.00 | 0.00 | 85 | 1009.2 |
| 20260506220023 | 61 | 175 | 2.0 | 9.0 | 0.00 | 0.00 | 0.00 | 85 | 1009.1 |
| 20260506215022 | 62 | 174 | 3.0 | 10.0 | 0.00 | 0.00 | 0.00 | 84 | 1009.3 |
| 20260506214022 | 62 | 148 | 2.0 | 8.0 | 0.00 | 0.00 | 0.00 | 84 | 1009.3 |
| 20260506213022 | 62 | 149 | 3.0 | 10.0 | 0.00 | 0.00 | 0.00 | 84 | 1009.4 |
| 20260506212022 | 62 | 125 | 2.0 | 7.0 | 0.00 | 0.00 | 0.00 | 84 | 1009.3 |
| 20260506211022 | 62 | 158 | 2.0 | 8.0 | 0.00 | 0.00 | 0.00 | 83 | 1009.4 |
| 20260506210023 | 63 | 180 | 3.0 | 15.0 | 0.00 | 0.00 | 0.00 | 83 | 1009.6 |
| 20260506205023 | 63 | 208 | 3.0 | 8.0 | 0.00 | 0.00 | 0.00 | 82 | 1009.7 |
| 20260506204022 | 63 | 156 | 3.0 | 9.0 | 0.00 | 0.00 | 0.00 | 82 | 1009.9 |
| 20260506203023 | 63 | 158 | 4.0 | 9.0 | 0.00 | 0.00 | 0.00 | 82 | 1010.0 |
| 20260506202023 | 63 | 212 | 2.0 | 7.0 | 0.00 | 0.00 | 0.00 | 81 | 1010.0 |
| 20260506201022 | 63 | 215 | 3.0 | 6.0 | 0.00 | 0.00 | 0.00 | 81 | 1010.2 |
| 20260506200023 | 63 | 171 | 3.0 | 8.0 | 0.00 | 0.00 | 0.00 | 81 | 1010.1 |
| 20260506195023 | 63 | 157 | 3.0 | 11.0 | 0.00 | 0.00 | 0.00 | 81 | 1010.2 |
| 20260506194023 | 63 | 168 | 2.0 | 6.0 | 0.00 | 0.00 | 0.00 | 81 | 1010.2 |
| 20260506193023 | 64 | 141 | 3.0 | 6.0 | 0.00 | 0.00 | 0.00 | 80 | 1010.2 |
| 20260506192023 | 64 | 232 | 3.0 | 11.0 | 0.00 | 0.00 | 0.00 | 79 | 1010.4 |
| 20260506191023 | 64 | 137 | 3.0 | 9.0 | 0.00 | 0.00 | 0.00 | 80 | 1010.5 |
| 20260506190022 | 65 | 169 | 3.0 | 7.0 | 0.00 | 0.00 | 0.00 | 79 | 1010.7 |
| 20260506185023 | 65 | 160 | 2.0 | 8.0 | 0.00 | 0.00 | 0.00 | 78 | 1011.0 |
| 20260506184023 | 66 | 224 | 3.0 | 11.0 | 0.00 | 0.00 | 0.00 | 77 | 1011.0 |
| 20260506183023 | 67 | 143 | 4.0 | 15.0 | 0.00 | 0.00 | 0.00 | 75 | 1011.3 |
| 20260506182023 | 68 | 311 | 4.0 | 11.0 | 0.00 | 0.00 | 0.00 | 74 | 1011.7 |
| 20260506181022 | 68 | 298 | 3.0 | 11.0 | 0.00 | 0.00 | 0.00 | 75 | 1011.7 |
| 20260506180023 | 67 | 281 | 3.0 | 11.0 | 0.00 | 0.00 | 0.00 | 77 | 1011.6 |
| 20260506175022 | 66 | 339 | 4.0 | 13.0 | 0.00 | 0.00 | 0.00 | 78 | 1011.6 |
| 20260506174022 | 65 | 160 | 3.0 | 8.0 | 0.00 | 0.00 | 0.00 | 79 | 1011.6 |
| 20260506173023 | 65 | 180 | 3.0 | 10.0 | 0.00 | 0.00 | 0.00 | 78 | 1011.9 |
| 20260506172029 | 65 | 195 | 3.0 | 7.0 | 0.00 | 0.00 | 0.00 | 78 | 1012.0 |
| 20260506171023 | 65 | 148 | 3.0 | 15.0 | 0.00 | 0.00 | 0.00 | 78 | 1012.1 |
| 20260506170022 | 66 | 114 | 2.0 | 6.0 | 0.00 | 0.00 | 0.00 | 77 | 1012.4 |
| 20260506165022 | 67 | 247 | 4.0 | 12.0 | 0.00 | 0.00 | 0.00 | 75 | 1012.4 |
| 20260506164023 | 68 | 270 | 3.0 | 7.0 | 0.00 | 0.00 | 0.00 | 76 | 1012.4 |
| 20260506163023 | 67 | 300 | 4.0 | 11.0 | 0.00 | 0.00 | 0.00 | 75 | 1012.4 |
| 20260506162022 | 68 | 249 | 4.0 | 11.0 | 0.00 | 0.00 | 0.00 | 75 | 1012.8 |
| 20260506161023 | 68 | 174 | 4.0 | 17.0 | 0.00 | 0.00 | 0.00 | 75 | 1012.9 |
| 20260506160023 | 68 | 188 | 4.0 | 11.0 | 0.00 | 0.00 | 0.00 | 76 | 1013.0 |
| 20260506155023 | 67 | 308 | 5.0 | 18.0 | 0.00 | 0.00 | 0.00 | 76 | 1013.0 |
| 20260506154023 | 66 | 284 | 4.0 | 13.0 | 0.00 | 0.00 | 0.00 | 77 | 1013.0 |
| 20260506153023 | 66 | 249 | 3.0 | 10.0 | 0.00 | 0.00 | 0.00 | 78 | 1013.0 |
| 20260506152022 | 66 | 297 | 3.0 | 8.0 | 0.00 | 0.00 | 0.00 | 77 | 1012.9 |
| 20260506151023 | 66 | 136 | 3.0 | 11.0 | 0.00 | 0.00 | 0.00 | 78 | 1012.9 |
| 20260506150023 | 65 | 289 | 4.0 | 16.0 | 0.00 | 0.00 | 0.00 | 78 | 1012.9 |
| 20260506145023 | 66 | 244 | 3.0 | 8.0 | 0.00 | 0.00 | 0.00 | 77 | 1012.9 |
| 20260506144023 | 67 | 147 | 4.0 | 8.0 | 0.00 | 0.00 | 0.00 | 77 | 1012.9 |
| 20260506143020 | 66 | 208 | 4.0 | 11.0 | 0.00 | 0.00 | 0.00 | 78 | 1013.1 |
| 20260506142020 | 66 | 139 | 3.0 | 10.0 | 0.00 | 0.00 | 0.00 | 79 | 1013.3 |
| 20260506141021 | 65 | 130 | 3.0 | 12.0 | 0.00 | 0.00 | 0.00 | 79 | 1013.3 |
| 20260506140020 | 64 | 197 | 3.0 | 11.0 | 0.00 | 0.00 | 0.00 | 80 | 1013.3 |
| 20260506135020 | 64 | 305 | 4.0 | 11.0 | 0.00 | 0.00 | 0.00 | 80 | 1013.0 |
| 20260506134020 | 64 | 166 | 3.0 | 11.0 | 0.00 | 0.00 | 0.00 | 81 | 1013.1 |
| 20260506133020 | 63 | 147 | 3.0 | 11.0 | 0.00 | 0.00 | 0.00 | 82 | 1012.9 |
| 20260506132020 | 63 | 143 | 4.0 | 9.0 | 0.00 | 0.00 | 0.00 | 83 | 1013.0 |
| 20260506131020 | 62 | 146 | 3.0 | 13.0 | 0.00 | 0.00 | 0.00 | 84 | 1013.1 |
| 20260506130020 | 62 | 145 | 4.0 | 15.0 | 0.00 | 0.00 | 0.00 | 85 | 1013.2 |
| 20260506125022 | 61 | 221 | 4.0 | 9.0 | 0.00 | 0.00 | 0.00 | 85 | 1013.1 |
| 20260506124021 | 60 | 168 | 2.0 | 6.0 | 0.00 | 0.00 | 0.00 | 87 | 1013.1 |
| 20260506123021 | 59 | 156 | 2.0 | 8.0 | 0.00 | 0.00 | 0.00 | 88 | 1013.4 |
| 20260506122022 | 59 | 142 | 3.0 | 7.0 | 0.00 | 0.00 | 0.00 | 88 | 1013.5 |